Time;durP1;ratioP1;P1;durP2;ratioP2;P2;SDS_P1;SDS_P2;PMS_P1;PMS_P2;Temp;Humidity;BMP_temperature;BMP_pressure;BME280_temperature;BME280_humidity;BME280_pressure;Samples;Min_cycle;Max_cycle;Signal;HPM_P1;HPM_P2
2022/01/14 00:02:26;;;;;;;39.10;16.23;;;;;;;-5.67;79.54;98049.81;5065249;28;20045;-64
2022/01/14 00:04:53;;;;;;;38.08;11.07;;;;;;;-5.23;79.67;98121.84;5064943;28;20082;-64
2022/01/14 00:07:20;;;;;;;25.08;10.85;;;;;;;-5.35;79.93;98083.31;5064286;28;20049;-68
2022/01/14 00:09:47;;;;;;;34.78;11.32;;;;;;;-5.39;79.31;98079.47;5064873;28;20049;-64
2022/01/14 00:12:24;;;;;;;75.60;23.17;;;;;;;-5.31;79.74;98097.97;5064708;28;20055;-64
2022/01/14 00:15:13;;;;;;;34.45;13.48;;;;;;;-5.84;79.39;98000.47;5062924;28;20052;-65
2022/01/14 00:17:37;;;;;;;26.17;9.38;;;;;;;-5.23;79.11;98105.66;5064534;28;20056;-67
2022/01/14 00:20:04;;;;;;;18.83;6.63;;;;;;;-5.20;78.60;98115.97;5064792;28;20055;-67
2022/01/14 00:22:31;;;;;;;18.45;6.78;;;;;;;-5.19;78.66;98101.44;5064752;28;20056;-67
2022/01/14 00:33:05;;;;;;;41.03;15.77;;;;;;;-5.94;79.44;98029.94;5064096;28;20052;-65
2022/01/14 00:35:33;;;;;;;36.25;12.50;;;;;;;-5.46;80.10;98116.59;5064697;28;20068;-64
2022/01/14 00:38:00;;;;;;;38.22;12.25;;;;;;;-5.74;80.89;98065.34;5062821;28;20503;-68
2022/01/14 00:40:27;;;;;;;41.70;13.82;;;;;;;-5.37;79.96;98088.13;5063075;28;20053;-64
2022/01/14 00:42:54;;;;;;;46.72;15.07;;;;;;;-5.16;79.95;98117.13;5063276;28;20059;-64
2022/01/14 00:45:21;;;;;;;52.15;18.25;;;;;;;-5.11;80.28;98114.53;5063921;28;20063;-68
2022/01/14 00:47:48;;;;;;;44.78;15.52;;;;;;;-5.05;80.18;98118.94;5064398;28;20052;-64
2022/01/14 00:50:17;;;;;;;34.33;12.02;;;;;;;-5.15;79.80;98123.34;5062806;28;20123;-68
2022/01/14 00:52:44;;;;;;;42.17;14.38;;;;;;;-5.27;80.61;98099.13;5064334;28;20195;-64
2022/01/14 00:55:14;;;;;;;58.95;19.65;;;;;;;-5.09;80.98;98127.78;5064218;28;20460;-64
2022/01/14 01:00:30;;;;;;;30.10;10.55;;;;;;;-5.20;79.89;98115.16;5064248;28;20048;-67
2022/01/14 01:02:57;;;;;;;25.98;11.02;;;;;;;-5.30;79.63;98126.59;5064253;28;20223;-67
2022/01/14 01:05:25;;;;;;;35.13;11.35;;;;;;;-5.37;79.52;98112.44;5062848;28;20055;-64
2022/01/14 01:08:19;;;;;;;24.50;9.18;;;;;;;-5.45;79.83;98102.03;5064103;28;20557;-63
2022/01/14 01:10:49;;;;;;;33.67;11.40;;;;;;;-5.76;80.39;98088.22;5064008;28;20241;-64
2022/01/14 01:13:31;;;;;;;35.60;12.43;;;;;;;-5.52;79.89;98112.19;5062804;28;20056;-64
2022/01/14 01:15:58;;;;;;;29.15;9.85;;;;;;;-5.89;79.61;98057.00;5064013;28;20242;-68
2022/01/14 01:18:25;;;;;;;35.60;12.48;;;;;;;-5.98;79.27;98049.53;5062180;28;20052;-64
2022/01/14 01:20:52;;;;;;;39.00;13.05;;;;;;;-5.63;79.90;98118.44;5062188;28;20807;-67
2022/01/14 01:23:19;;;;;;;22.00;8.70;;;;;;;-6.09;81.66;98124.03;5063687;28;20052;-64
2022/01/14 01:25:52;;;;;;;31.85;10.32;;;;;;;-6.01;83.20;98118.25;5063689;28;20056;-64
2022/01/14 01:28:19;;;;;;;50.60;16.73;;;;;;;-5.84;82.92;98124.53;5063911;28;20052;-63
2022/01/14 01:31:05;;;;;;;41.08;13.88;;;;;;;-6.15;81.90;98036.03;5062291;28;20053;-63
2022/01/14 01:33:32;;;;;;;42.47;12.60;;;;;;;-5.78;82.26;98091.16;5062411;28;20062;-65
2022/01/14 01:35:59;;;;;;;48.13;16.52;;;;;;;-5.64;81.02;98092.50;5062160;28;20496;-64
2022/01/14 01:38:26;;;;;;;41.10;15.48;;;;;;;-5.72;81.65;98095.59;5063741;28;20151;-67
2022/01/14 01:40:53;;;;;;;55.10;17.95;;;;;;;-6.07;81.42;98007.84;5063711;28;20048;-64
2022/01/14 01:43:24;;;;;;;38.63;12.73;;;;;;;-6.33;80.58;97963.41;5063569;28;20056;-68
2022/01/14 01:45:54;;;;;;;35.95;10.32;;;;;;;-5.78;81.29;98072.28;5063480;28;20051;-67
2022/01/14 01:48:21;;;;;;;63.28;19.35;;;;;;;-5.82;81.10;98041.50;5063115;28;20048;-64
2022/01/14 01:50:48;;;;;;;26.45;10.27;;;;;;;-6.18;80.56;97966.41;5063508;28;20056;-63
2022/01/14 01:53:15;;;;;;;27.23;7.85;;;;;;;-5.72;80.68;98051.63;5063636;28;20048;-64
2022/01/14 01:55:42;;;;;;;21.95;6.38;;;;;;;-5.70;81.05;98033.28;5063350;28;20052;-63
2022/01/14 01:58:08;;;;;;;21.20;7.25;;;;;;;-5.70;80.77;98028.72;5062294;28;20060;-63
2022/01/14 02:00:35;;;;;;;16.80;5.47;;;;;;;-5.62;79.92;98025.63;5063501;28;20080;-67
2022/01/14 02:03:03;;;;;;;14.77;5.18;;;;;;;-5.58;78.97;98026.78;5063043;28;20489;-68
2022/01/14 02:05:30;;;;;;;15.02;5.50;;;;;;;-6.87;79.04;97810.47;5061717;28;20061;-68
2022/01/14 02:07:57;;;;;;;15.88;5.07;;;;;;;-5.52;78.63;98020.41;5061797;28;20060;-68
2022/01/14 02:10:25;;;;;;;12.70;4.43;;;;;;;-5.73;79.11;97980.66;5064956;28;20048;-64
2022/01/14 02:12:53;;;;;;;20.65;6.57;;;;;;;-6.05;78.72;97925.66;5066196;28;20063;-68
2022/01/14 02:23:27;;;;;;;21.88;7.25;;;;;;;-5.55;80.36;97993.09;5067423;28;20060;-67
2022/01/14 02:25:54;;;;;;;27.33;7.88;;;;;;;-5.64;80.59;97973.78;5067291;28;20131;-68
2022/01/14 02:28:21;;;;;;;44.53;11.98;;;;;;;-5.39;81.05;97982.28;5066732;28;20052;-67
2022/01/14 02:30:49;;;;;;;36.33;11.65;;;;;;;-5.35;80.91;97977.22;5066694;28;20498;-68
2022/01/14 02:33:17;;;;;;;41.38;15.02;;;;;;;-5.37;81.44;97969.38;5067284;28;20052;-68
2022/01/14 02:35:48;;;;;;;58.88;18.75;;;;;;;-5.30;81.40;97969.22;5067045;28;20056;-68
2022/01/14 02:38:16;;;;;;;30.33;11.65;;;;;;;-5.42;81.41;97971.97;5065110;28;20064;-67
2022/01/14 02:40:43;;;;;;;31.42;11.52;;;;;;;-5.43;81.24;97954.16;5065186;28;20052;-67
2022/01/14 02:43:15;;;;;;;16.45;6.50;;;;;;;-5.65;80.24;97918.19;5066582;28;20137;-64
2022/01/14 02:45:47;;;;;;;17.65;5.55;;;;;;;-5.40;79.62;97953.66;5066453;28;20578;-68
2022/01/14 02:48:14;;;;;;;27.80;9.50;;;;;;;-5.49;79.33;97949.75;5066763;28;20064;-64
2022/01/14 02:50:53;;;;;;;25.67;10.18;;;;;;;-5.65;78.87;97906.59;5066558;28;20090;-67
2022/01/14 02:53:28;;;;;;;28.38;10.07;;;;;;;-5.93;78.83;97871.66;5065305;28;20048;-67
2022/01/14 02:56:06;;;;;;;31.40;8.45;;;;;;;-5.84;79.02;97876.41;5066146;28;20063;-68
2022/01/14 02:58:35;;;;;;;26.67;8.77;;;;;;;-5.32;78.84;97920.88;5066233;28;20534;-68
2022/01/14 03:01:12;;;;;;;26.23;8.90;;;;;;;-5.43;78.94;97924.47;5066169;28;20426;-64
2022/01/14 03:03:40;;;;;;;19.45;6.60;;;;;;;-5.47;78.99;97930.63;5064861;28;20399;-63
2022/01/14 03:06:07;;;;;;;16.25;5.82;;;;;;;-5.92;78.64;97866.00;5066129;28;20048;-68
2022/01/14 03:08:35;;;;;;;16.30;6.28;;;;;;;-5.41;79.58;97902.63;5066563;28;20147;-65
2022/01/14 03:11:10;;;;;;;13.63;5.38;;;;;;;-5.85;79.24;97866.69;5065825;28;20060;-64
2022/01/14 03:13:37;;;;;;;21.10;6.25;;;;;;;-5.54;79.33;97917.28;5065964;28;20068;-63
2022/01/14 03:16:05;;;;;;;33.45;9.40;;;;;;;-5.54;79.53;97911.06;5064197;28;20415;-67
2022/01/14 03:18:48;;;;;;;20.42;7.60;;;;;;;-5.40;78.96;97915.88;5066006;28;20048;-63
2022/01/14 03:21:24;;;;;;;18.30;6.82;;;;;;;-5.43;78.66;97911.00;5065278;28;20061;-67
2022/01/14 03:24:02;;;;;;;16.35;6.22;;;;;;;-5.52;79.19;97912.47;5064845;28;20059;-67
2022/01/14 03:26:29;;;;;;;14.13;6.07;;;;;;;-5.47;79.37;97899.03;5066176;28;20135;-67
2022/01/14 03:28:56;;;;;;;27.50;8.30;;;;;;;-5.66;79.44;97857.22;5065701;28;20056;-66
2022/01/14 03:31:23;;;;;;;19.20;8.20;;;;;;;-5.40;79.10;97915.88;5064392;28;20511;-67
2022/01/14 03:33:49;;;;;;;26.45;7.72;;;;;;;-5.42;79.27;97896.41;5064396;28;20061;-67
2022/01/14 03:36:16;;;;;;;19.50;6.35;;;;;;;-5.78;79.63;97843.00;5064000;28;20140;-64
2022/01/14 03:38:43;;;;;;;31.85;9.15;;;;;;;-5.35;79.21;97897.06;5065490;28;20055;-64
2022/01/14 03:41:09;;;;;;;23.35;8.15;;;;;;;-5.41;78.88;97902.63;5066092;28;20170;-63
2022/01/14 03:43:38;;;;;;;15.85;6.20;;;;;;;-6.19;78.83;97765.28;5064780;28;20068;-67
2022/01/14 03:46:05;;;;;;;66.32;18.98;;;;;;;-5.38;79.10;97896.75;5065925;28;20896;-67
2022/01/14 03:48:32;;;;;;;52.90;15.55;;;;;;;-5.45;79.07;97890.69;5065861;28;20052;-67
2022/01/14 03:50:58;;;;;;;18.00;6.93;;;;;;;-5.55;78.69;97896.78;5065651;28;20113;-64
2022/01/14 03:53:25;;;;;;;28.30;9.60;;;;;;;-5.49;79.15;97889.56;5065897;28;20079;-63
2022/01/14 03:55:53;;;;;;;33.40;9.85;;;;;;;-5.53;79.09;97888.44;5074423;28;20052;-64
2022/01/14 03:58:37;;;;;;;52.10;14.57;;;;;;;-5.74;79.45;97849.56;5065987;28;20057;-67
2022/01/14 04:01:06;;;;;;;24.05;7.68;;;;;;;-5.56;79.44;97892.44;5064127;28;20049;-67
2022/01/14 04:03:34;;;;;;;22.67;7.60;;;;;;;-6.12;79.18;97776.72;5064271;28;20056;-67
2022/01/14 04:06:01;;;;;;;18.85;7.20;;;;;;;-5.46;78.01;97875.56;5065098;28;20622;-68
2022/01/14 04:08:28;;;;;;;21.67;9.55;;;;;;;-5.56;78.73;97861.94;5063941;28;20147;-68
2022/01/14 04:10:56;;;;;;;31.80;10.43;;;;;;;-6.33;78.99;97759.44;5065161;28;20048;-64
2022/01/14 04:13:35;;;;;;;28.75;8.85;;;;;;;-5.53;79.77;97867.66;5064315;28;20459;-67
2022/01/14 04:16:02;;;;;;;31.15;9.70;;;;;;;-5.57;79.66;97855.72;5065488;28;20052;-67
2022/01/14 04:18:29;;;;;;;41.03;13.40;;;;;;;-6.27;79.37;97738.75;5064833;28;20136;-63
2022/01/14 04:20:56;;;;;;;133.45;43.63;;;;;;;-5.50;79.21;97850.97;5065019;28;20480;-66
2022/01/14 04:23:23;;;;;;;104.60;41.90;;;;;;;-5.51;79.27;97843.94;5064491;28;20434;-67
2022/01/14 04:25:52;;;;;;;61.42;24.00;;;;;;;-5.65;79.30;97826.47;5063364;28;20062;-63
2022/01/14 04:28:20;;;;;;;37.47;12.75;;;;;;;-5.59;79.12;97820.09;5064603;28;20048;-68
2022/01/14 04:30:48;;;;;;;77.38;25.75;;;;;;;-5.49;79.21;97836.41;5064966;28;20586;-64
2022/01/14 04:33:15;;;;;;;37.38;16.00;;;;;;;-6.32;79.64;97717.13;5064547;28;20067;-68
2022/01/14 04:35:41;;;;;;;61.72;22.95;;;;;;;-5.49;79.67;97847.22;5063263;28;20075;-68
2022/01/14 04:38:08;;;;;;;72.63;31.92;;;;;;;-5.43;79.72;97840.81;5064251;28;20048;-63
2022/01/14 04:40:35;;;;;;;84.82;29.35;;;;;;;-5.51;79.84;97838.53;5064410;28;20526;-63
2022/01/14 04:43:01;;;;;;;68.90;22.95;;;;;;;-5.50;79.83;97840.16;5064458;28;20045;-68
2022/01/14 04:46:02;;;;;;;65.20;24.13;;;;;;;-5.97;79.71;97763.47;5062876;28;20072;-64
2022/01/14 04:48:15;;;;;;;60.38;20.95;;;;;;;-5.57;79.86;97834.16;5064034;28;20064;-68
2022/01/14 04:50:43;;;;;;;54.38;18.42;;;;;;;-5.73;79.76;97808.00;5062950;28;20045;-67
2022/01/14 04:53:10;;;;;;;70.38;21.27;;;;;;;-5.63;79.79;97842.41;5062559;28;20060;-67
2022/01/14 04:55:37;;;;;;;137.00;35.45;;;;;;;-5.62;79.74;97833.25;5063379;28;20530;-63
2022/01/14 04:58:05;;;;;;;61.97;20.35;;;;;;;-5.57;79.32;97834.16;5064090;28;20144;-63
2022/01/14 05:00:32;;;;;;;41.33;16.35;;;;;;;-5.67;80.02;97827.78;5063786;28;20048;-67
2022/01/14 05:02:59;;;;;;;29.67;12.13;;;;;;;-5.69;79.93;97825.31;5063646;28;20145;-65
2022/01/14 05:05:29;;;;;;;31.85;14.15;;;;;;;-5.73;79.51;97810.72;5063411;28;20052;-66
2022/01/14 05:07:57;;;;;;;33.38;11.70;;;;;;;-5.54;79.02;97808.53;5063742;28;20507;-63
2022/01/14 05:12:57;;;;;;;20.45;6.82;;;;;;;-6.54;78.54;97651.59;5064094;28;20511;-63
2022/01/14 05:15:23;;;;;;;17.92;6.20;;;;;;;-5.80;78.66;97769.59;5061993;28;20079;-64
2022/01/14 05:17:52;;;;;;;15.27;7.05;;;;;;;-5.99;78.41;97735.91;5063662;28;20534;-66
2022/01/14 05:20:19;;;;;;;21.80;7.97;;;;;;;-5.53;78.66;97802.88;5063391;28;20052;-64
2022/01/14 05:22:46;;;;;;;26.95;9.65;;;;;;;-5.47;78.91;97806.47;5063970;28;20049;-66
2022/01/14 05:25:15;;;;;;;35.42;12.70;;;;;;;-5.46;78.28;97798.13;5063519;28;20045;-63
2022/01/14 05:27:43;;;;;;;80.00;22.17;;;;;;;-5.81;78.40;97735.63;5061627;28;20052;-63
2022/01/14 05:30:13;;;;;;;128.55;33.75;;;;;;;-5.33;78.27;97803.16;5063327;28;20052;-63
2022/01/14 05:32:51;;;;;;;150.68;40.20;;;;;;;-5.51;78.51;97789.97;5061629;28;20075;-67
2022/01/14 05:35:24;;;;;;;185.02;54.75;;;;;;;-5.86;78.39;97754.44;5063394;28;20497;-63
2022/01/14 05:37:51;;;;;;;65.45;23.13;;;;;;;-5.80;77.58;97747.22;5061476;28;20478;-67
2022/01/14 05:40:20;;;;;;;32.92;12.77;;;;;;;-5.49;77.97;97782.44;5061721;28;20059;-64
2022/01/14 05:42:47;;;;;;;40.22;13.65;;;;;;;-5.81;78.83;97730.22;5063391;28;20070;-63
2022/01/14 05:45:16;;;;;;;32.53;12.13;;;;;;;-5.54;78.85;97789.66;5062492;28;20506;-64
2022/01/14 05:47:43;;;;;;;61.90;21.13;;;;;;;-5.58;78.99;97783.94;5063332;28;20542;-66
2022/01/14 05:50:14;;;;;;;57.92;16.92;;;;;;;-5.60;79.69;97785.25;5063298;28;20513;-63
2022/01/14 05:52:41;;;;;;;33.53;13.48;;;;;;;-5.80;79.43;97748.03;5061734;28;20049;-63
2022/01/14 05:55:11;;;;;;;33.10;9.73;;;;;;;-5.61;79.41;97770.94;5078125;28;20082;-64
2022/01/14 05:57:38;;;;;;;19.45;8.75;;;;;;;-5.59;79.05;97771.50;5083784;28;20044;-64
2022/01/14 06:00:11;;;;;;;24.98;9.02;;;;;;;-5.60;78.81;97763.66;5083874;28;20056;-66
2022/01/14 06:02:38;;;;;;;28.58;12.27;;;;;;;-6.02;79.02;97687.88;5083135;28;20048;-64
2022/01/14 06:05:06;;;;;;;29.77;10.40;;;;;;;-5.57;78.00;97726.22;5083094;28;20048;-64
2022/01/14 06:07:33;;;;;;;21.10;9.48;;;;;;;-5.45;77.65;97729.59;5083445;28;20494;-63
2022/01/14 06:09:59;;;;;;;35.00;11.88;;;;;;;-5.18;76.88;97735.03;5083113;28;20059;-64
2022/01/14 06:12:26;;;;;;;30.35;10.88;;;;;;;-5.21;76.58;97779.56;5082729;28;20479;-66
2022/01/14 06:14:53;;;;;;;29.98;10.98;;;;;;;-5.14;76.78;97758.59;5082832;28;20074;-65
2022/01/14 06:17:20;;;;;;;34.47;11.95;;;;;;;-5.48;77.40;97729.28;5081423;28;20131;-67
2022/01/14 06:19:47;;;;;;;89.50;21.83;;;;;;;-5.06;76.84;97755.41;5083513;28;20491;-64
2022/01/14 06:22:18;;;;;;;48.05;14.40;;;;;;;-5.46;76.99;97679.41;5082944;28;20142;-66
2022/01/14 06:24:45;;;;;;;42.10;14.18;;;;;;;-5.03;76.69;97733.31;5082765;28;20044;-65
2022/01/14 06:27:12;;;;;;;38.33;14.98;;;;;;;-4.81;76.00;97758.41;5081197;28;20128;-65
2022/01/14 06:29:38;;;;;;;54.92;19.60;;;;;;;-4.80;75.32;97756.50;5081365;28;20051;-65
2022/01/14 06:32:06;;;;;;;56.47;21.02;;;;;;;-4.67;75.17;97769.59;5082269;28;20052;-67
2022/01/14 06:34:33;;;;;;;56.97;19.85;;;;;;;-5.28;74.93;97660.13;5082208;28;20093;-66
2022/01/14 06:37:00;;;;;;;44.45;15.93;;;;;;;-4.67;75.89;97754.19;5082316;28;20411;-65
2022/01/14 06:39:27;;;;;;;46.53;17.73;;;;;;;-5.10;76.57;97661.66;5081198;28;20047;-67
2022/01/14 06:41:54;;;;;;;50.83;17.90;;;;;;;-4.35;76.20;97731.75;5082300;28;20344;-67
2022/01/14 06:44:20;;;;;;;41.08;15.88;;;;;;;-4.29;75.28;97728.00;5082573;28;20056;-67
2022/01/14 06:46:47;;;;;;;50.85;18.85;;;;;;;-4.01;73.97;97738.47;5082905;28;20160;-64
2022/01/14 06:49:14;;;;;;;43.53;17.52;;;;;;;-5.17;74.43;97599.78;5073505;28;20429;-63
2022/01/14 06:51:41;;;;;;;45.67;16.90;;;;;;;-5.03;75.07;97608.28;5064758;28;20079;-68
2022/01/14 06:54:07;;;;;;;42.20;17.27;;;;;;;-4.58;75.28;97667.25;5065133;28;20138;-60
2022/01/14 06:56:34;;;;;;;44.67;18.17;;;;;;;-4.22;74.66;97653.69;5075127;28;20044;-64
2022/01/14 06:59:06;;;;;;;44.05;17.77;;;;;;;-4.30;74.22;97629.06;5080615;28;20195;-62
2022/01/14 07:01:32;;;;;;;57.25;20.92;;;;;;;-3.66;73.72;97695.38;5069356;28;20044;-59
2022/01/14 07:03:59;;;;;;;48.42;20.52;;;;;;;-3.27;72.38;97720.97;5078712;28;20048;-67
2022/01/14 07:06:26;;;;;;;50.90;18.27;;;;;;;-3.05;71.06;97708.03;5091909;28;20059;-61
2022/01/14 07:08:53;;;;;;;36.70;13.75;;;;;;;-3.08;71.18;97684.19;5070492;28;20055;-63
2022/01/14 07:11:25;;;;;;;24.52;9.95;;;;;;;-3.97;75.48;97709.84;5066808;28;20052;-70
2022/01/14 07:13:52;;;;;;;28.20;11.32;;;;;;;-3.35;75.18;97713.41;5085106;28;20047;-61
2022/01/14 07:16:19;;;;;;;28.95;11.75;;;;;;;-3.69;73.35;97593.06;5091158;28;20052;-62
2022/01/14 07:18:48;;;;;;;29.42;12.43;;;;;;;-2.87;72.21;97656.06;5072091;28;20155;-63
2022/01/14 07:21:15;;;;;;;42.47;16.88;;;;;;;-2.74;71.07;97633.84;5066156;28;20055;-69
2022/01/14 07:23:42;;;;;;;61.50;23.10;;;;;;;-3.79;69.29;97417.16;5075554;28;20045;-62
2022/01/14 07:26:08;;;;;;;71.35;27.30;;;;;;;-1.97;69.64;97672.28;5094362;28;20534;-64
2022/01/14 07:28:35;;;;;;;61.80;25.17;;;;;;;-1.83;68.72;97676.03;5074495;28;20054;-71
2022/01/14 07:31:02;;;;;;;68.68;27.42;;;;;;;-2.94;68.03;97438.72;5077780;28;20059;-63
2022/01/14 07:33:28;;;;;;;61.40;24.20;;;;;;;-1.34;66.68;97662.53;5079137;28;20446;-64
2022/01/14 07:35:55;;;;;;;50.97;21.17;;;;;;;-1.09;64.40;97667.03;5065516;28;20052;-60
2022/01/14 07:38:22;;;;;;;48.75;21.38;;;;;;;-1.27;63.45;97626.91;5077913;28;20581;-63
2022/01/14 07:40:49;;;;;;;62.95;22.17;;;;;;;-2.26;62.50;97456.91;5078159;28;20342;-68
2022/01/14 07:43:16;;;;;;;61.53;21.42;;;;;;;-0.74;61.33;97664.88;5069290;28;20540;-64
2022/01/14 07:45:43;;;;;;;62.00;21.70;;;;;;;-0.73;61.02;97622.19;5067614;28;20091;-62
2022/01/14 07:48:10;;;;;;;43.67;18.05;;;;;;;-0.48;60.09;97663.59;5064946;28;20052;-59
2022/01/14 07:50:36;;;;;;;38.50;15.52;;;;;;;-0.51;60.73;97653.28;5072446;28;20052;-68
2022/01/14 07:53:03;;;;;;;31.83;11.63;;;;;;;-0.30;60.38;97648.50;5072555;28;20051;-65
2022/01/14 07:55:30;;;;;;;30.08;11.23;;;;;;;-0.54;59.45;97582.31;5069221;28;20082;-64
2022/01/14 07:57:57;;;;;;;42.40;14.68;;;;;;;-0.67;61.12;97566.66;5073900;28;20147;-63
2022/01/14 08:00:24;;;;;;;31.77;10.82;;;;;;;-0.64;66.03;97650.41;5064033;28;20173;-64
2022/01/14 08:02:50;;;;;;;25.48;10.45;;;;;;;-0.90;68.32;97602.75;5065588;28;20085;-67
2022/01/14 08:05:17;;;;;;;28.10;10.15;;;;;;;-0.20;66.10;97634.75;5063500;28;20048;-64
2022/01/14 08:07:46;;;;;;;27.45;9.85;;;;;;;0.04;65.24;97662.84;5076797;28;20071;-65
2022/01/14 08:10:14;;;;;;;24.40;9.45;;;;;;;0.02;65.40;97672.41;5072300;28;20044;-73
2022/01/14 08:12:41;;;;;;;21.45;7.78;;;;;;;-0.58;66.04;97658.22;5078855;28;20219;-64
2022/01/14 08:15:10;;;;;;;33.45;12.48;;;;;;;-0.93;66.54;97585.06;5063764;28;20135;-63
2022/01/14 08:17:37;;;;;;;33.63;12.18;;;;;;;-0.40;66.14;97599.59;5076348;28;20052;-65
2022/01/14 08:20:06;;;;;;;28.85;11.50;;;;;;;-2.07;63.93;97243.53;5074852;28;20523;-64
2022/01/14 08:22:33;;;;;;;19.58;7.75;;;;;;;0.49;60.21;97635.06;5079354;28;20052;-67
2022/01/14 08:25:01;;;;;;;22.63;9.77;;;;;;;0.74;60.46;97632.06;5070863;28;20067;-62
2022/01/14 08:27:27;;;;;;;18.15;7.75;;;;;;;0.95;57.65;97638.81;5081255;28;20050;-65
2022/01/14 08:29:55;;;;;;;21.95;8.35;;;;;;;1.07;56.99;97641.94;5082833;28;20052;-65
2022/01/14 08:32:22;;;;;;;26.35;10.25;;;;;;;1.17;56.67;97624.63;5064655;28;20044;-67
2022/01/14 08:34:49;;;;;;;21.45;8.30;;;;;;;1.53;56.66;97610.09;5061147;28;20063;-67
2022/01/14 08:37:16;;;;;;;26.33;10.75;;;;;;;1.46;54.80;97606.94;5067853;28;20049;-65
2022/01/14 08:39:43;;;;;;;27.83;10.38;;;;;;;0.56;54.12;97425.69;5078105;28;20044;-69
2022/01/14 08:42:11;;;;;;;36.90;13.85;;;;;;;1.64;54.40;97607.19;5064009;28;20360;-65
2022/01/14 08:44:38;;;;;;;29.70;11.60;;;;;;;1.53;53.20;97509.09;5074168;28;20059;-65
2022/01/14 08:47:09;;;;;;;35.15;11.23;;;;;;;2.18;53.43;97586.22;5072567;28;20159;-61
2022/01/14 08:49:38;;;;;;;28.77;11.27;;;;;;;2.46;52.18;97581.56;5081451;28;20052;-64
2022/01/14 08:52:05;;;;;;;20.27;9.27;;;;;;;2.80;52.52;97570.97;5063976;28;20059;-64
2022/01/14 08:54:32;;;;;;;12.57;5.45;;;;;;;1.92;51.45;97384.91;5063700;28;20091;-63
2022/01/14 08:57:02;;;;;;;87.15;32.30;;;;;;;2.75;52.65;97497.25;5067316;28;20056;-67
2022/01/14 08:59:30;;;;;;;28.35;12.93;;;;;;;2.93;51.35;97501.75;5069394;28;20048;-64
2022/01/14 09:01:57;;;;;;;46.90;17.23;;;;;;;3.15;52.02;97545.53;5076569;28;20483;-63
2022/01/14 09:04:25;;;;;;;24.70;15.48;;;;;;;2.83;53.41;97477.34;5064485;28;20052;-64
2022/01/14 09:06:51;;;;;;;18.25;7.28;;;;;;;1.56;52.05;97273.72;5074146;28;20056;-64
2022/01/14 09:09:22;;;;;;;14.57;6.47;;;;;;;3.14;52.91;97532.97;5074439;28;20054;-65
2022/01/14 09:11:49;;;;;;;14.40;5.80;;;;;;;3.20;53.45;97477.00;5074573;28;20045;-66
2022/01/14 09:14:16;;;;;;;10.35;5.32;;;;;;;2.56;52.33;97351.69;5077035;28;20132;-64
2022/01/14 09:16:42;;;;;;;14.10;6.50;;;;;;;3.43;53.12;97514.16;5064167;28;20044;-61
2022/01/14 09:19:09;;;;;;;13.00;5.55;;;;;;;3.94;51.23;97528.13;5062736;28;20119;-64
2022/01/14 09:21:36;;;;;;;10.43;4.13;;;;;;;4.19;49.74;97523.88;5063236;28;20055;-70
2022/01/14 09:24:03;;;;;;;11.88;4.43;;;;;;;3.94;48.64;97448.66;5061216;28;20049;-69
2022/01/14 09:26:32;;;;;;;9.35;4.38;;;;;;;3.86;47.57;97391.91;5061699;28;20058;-62
2022/01/14 09:29:00;;;;;;;13.13;4.65;;;;;;;4.68;47.04;97518.03;5062786;28;20044;-63
2022/01/14 09:31:27;;;;;;;6.63;3.35;;;;;;;4.86;45.99;97524.34;5063481;28;20068;-64
2022/01/14 09:33:54;;;;;;;8.60;3.63;;;;;;;5.07;46.02;97504.19;5061252;28;20064;-63
2022/01/14 09:36:21;;;;;;;8.25;4.18;;;;;;;5.23;46.22;97482.50;5061850;28;20489;-68
2022/01/14 09:38:49;;;;;;;8.75;3.58;;;;;;;5.16;46.11;97413.53;5063848;28;20411;-66
2022/01/14 09:41:20;;;;;;;8.15;3.72;;;;;;;5.54;44.85;97442.69;5076329;28;20048;-65
2022/01/14 09:43:47;;;;;;;9.32;4.20;;;;;;;6.02;41.17;97478.13;5078393;28;20048;-68
2022/01/14 09:46:14;;;;;;;8.50;5.00;;;;;;;6.28;38.61;97467.78;5072765;28;20060;-67
2022/01/14 09:48:41;;;;;;;9.77;5.47;;;;;;;4.69;35.50;97268.03;5064336;28;20048;-65
2022/01/14 09:51:09;;;;;;;7.25;4.35;;;;;;;5.70;36.68;97427.28;5064400;28;20055;-68
2022/01/14 09:53:38;;;;;;;12.30;6.47;;;;;;;6.45;38.62;97442.91;5076848;28;20485;-69
2022/01/14 09:56:05;;;;;;;14.55;9.20;;;;;;;6.71;38.40;97449.06;5062918;28;20060;-69
2022/01/14 09:58:37;;;;;;;17.08;9.90;;;;;;;7.00;39.07;97443.44;5075085;28;20043;-69
2022/01/14 10:01:13;;;;;;;21.77;9.57;;;;;;;7.14;38.84;97427.47;5066215;28;20056;-65
2022/01/14 10:04:18;;;;;;;12.43;6.70;;;;;;;7.37;38.68;97417.66;5075000;28;20058;-61
2022/01/14 10:06:46;;;;;;;8.50;4.85;;;;;;;7.10;37.77;97407.22;5062826;28;20060;-70
2022/01/14 10:09:23;;;;;;;13.52;7.75;;;;;;;7.49;38.01;97392.88;5061223;28;20060;-63
2022/01/14 10:12:00;;;;;;;16.17;8.80;;;;;;;7.48;37.53;97336.16;5070408;28;20056;-63
2022/01/14 10:14:28;;;;;;;18.20;7.88;;;;;;;7.67;37.11;97383.25;5065929;28;20098;-62
2022/01/14 10:16:56;;;;;;;13.43;5.15;;;;;;;7.71;36.43;97350.28;5071019;28;20057;-65
2022/01/14 10:19:27;;;;;;;16.70;7.45;;;;;;;7.30;36.47;97296.16;5069066;28;20083;-61
2022/01/14 10:21:54;;;;;;;13.82;6.22;;;;;;;7.74;35.24;97372.44;5059805;28;20056;-64
2022/01/14 10:24:23;;;;;;;25.55;9.10;;;;;;;7.93;36.16;97371.09;5061013;28;20063;-64
2022/01/14 10:26:56;;;;;;;22.42;9.48;;;;;;;8.11;35.44;97347.63;5062577;28;20053;-67
2022/01/14 10:29:39;;;;;;;28.93;11.97;;;;;;;8.10;35.36;97340.50;5074986;28;20052;-67
2022/01/14 10:32:07;;;;;;;;;;;;;;;8.18;34.84;97334.03;5082673;28;20385;-65
2022/01/14 10:34:34;;;;;;;13.65;7.22;;;;;;;8.31;35.19;97324.63;5087302;28;20390;-63
2022/01/14 10:37:13;;;;;;;14.95;7.93;;;;;;;8.38;35.19;97324.81;5080036;28;20538;-62
2022/01/14 10:39:47;;;;;;;18.08;8.20;;;;;;;8.40;35.80;97317.00;5066794;28;20139;-70
2022/01/14 10:42:24;;;;;;;;;;;;;;;8.45;35.39;97308.47;5080480;28;20104;-65
2022/01/14 10:45:19;;;;;;;15.15;8.45;;;;;;;8.02;36.63;97228.31;5084543;28;20351;-65
2022/01/14 10:47:53;;;;;;;10.52;6.97;;;;;;;8.71;36.40;97284.00;5086719;28;20083;-65
2022/01/14 10:50:54;;;;;;;22.27;10.77;;;;;;;8.76;35.82;97280.97;5086691;28;20055;-65
2022/01/14 10:53:51;;;;;;;18.48;10.05;;;;;;;8.45;35.74;97187.03;5072040;28;20522;-63
2022/01/14 10:56:22;;;;;;;27.90;11.65;;;;;;;8.95;35.73;97275.56;5087148;28;20051;-66
2022/01/14 10:58:51;;;;;;;32.60;13.18;;;;;;;9.07;36.69;97247.88;5086318;28;20055;-65
2022/01/14 11:01:24;;;;;;;27.70;22.83;;;;;;;9.47;36.40;97278.13;5085096;28;20056;-63
2022/01/14 11:03:56;;;;;;;18.15;8.05;;;;;;;9.58;36.15;97257.84;5085246;28;20063;-63
2022/01/14 11:06:33;;;;;;;14.70;6.60;;;;;;;7.08;36.18;96858.69;5085041;28;20044;-63
2022/01/14 11:09:11;;;;;;;10.43;6.03;;;;;;;9.82;36.16;97256.81;5086762;28;20052;-62
2022/01/14 11:11:41;;;;;;;8.27;4.63;;;;;;;9.33;36.96;97245.38;5084718;28;20136;-64
2022/01/14 11:14:08;;;;;;;11.18;6.28;;;;;;;9.61;38.15;97246.06;5086433;28;20052;-63
2022/01/14 11:16:36;;;;;;;11.18;5.72;;;;;;;7.69;38.03;96890.25;5085190;28;20537;-63
2022/01/14 11:19:07;;;;;;;10.82;5.10;;;;;;;9.78;37.79;97195.09;5086165;28;20077;-63
2022/01/14 11:24:26;;;;;;;6.55;3.88;;;;;;;10.08;35.16;97188.69;5086363;28;20709;-63
2022/01/14 11:27:13;;;;;;;8.80;3.95;;;;;;;10.15;35.20;97199.09;5086411;28;20491;-62
2022/01/14 11:29:47;;;;;;;8.77;4.72;;;;;;;10.17;35.16;97164.34;5084612;28;20132;-65
2022/01/14 11:32:14;;;;;;;;;;;;;;;10.32;35.92;97182.84;5085997;28;20592;-64
2022/01/14 11:34:42;;;;;;;12.75;6.10;;;;;;;10.14;36.24;97142.94;5069299;28;19928;-65
2022/01/14 11:37:32;;;;;;;10.32;5.63;;;;;;;9.92;36.55;97090.25;5064496;28;20059;-63
2022/01/14 11:40:02;;;;;;;7.30;3.75;;;;;;;10.15;36.10;97196.31;5084456;28;20553;-63
2022/01/14 11:42:59;;;;;;;7.90;3.78;;;;;;;9.68;36.42;97073.94;5072669;28;20529;-65
2022/01/14 11:45:45;;;;;;;7.32;3.95;;;;;;;10.40;35.85;97173.50;5079839;28;20050;-65
2022/01/14 11:48:37;;;;;;;7.95;4.55;;;;;;;10.36;36.90;97178.19;5085143;28;20098;-68
2022/01/14 11:51:08;;;;;;;7.00;4.60;;;;;;;10.29;36.98;97172.50;5085416;28;20048;-68
2022/01/14 11:53:42;;;;;;;7.07;3.90;;;;;;;10.10;37.24;97146.81;5083625;28;20067;-68
2022/01/14 11:56:27;;;;;;;;;;;;;;;10.15;37.03;97161.16;5084182;28;20062;-64
2022/01/14 11:58:54;;;;;;;8.30;4.22;;;;;;;10.16;36.31;97161.97;5085389;28;20313;-68
2022/01/14 12:01:33;;;;;;;7.40;3.88;;;;;;;7.85;37.02;96798.44;5085832;28;20059;-65